createdAt,value
2022-11-20T00:02:10.184Z,7.04
2022-11-20T00:09:40.208Z,7.23
2022-11-20T00:12:10.245Z,6.63
2022-11-20T00:14:40.245Z,7.63
2022-11-20T00:17:10.276Z,6.68
2022-11-20T00:19:40.283Z,6.23
2022-11-20T00:24:43.019Z,6.76
2022-11-20T00:27:10.373Z,7.61
2022-11-20T00:29:40.394Z,6.33
2022-11-20T00:32:10.402Z,6.73
2022-11-20T00:37:10.474Z,7.28
2022-11-20T00:39:40.483Z,7.07
2022-11-20T00:42:10.505Z,8.24
2022-11-20T00:44:40.522Z,6.58
2022-11-20T00:47:10.549Z,7.53
2022-11-20T00:52:10.617Z,7.14
2022-11-20T00:54:40.626Z,7.23
2022-11-20T00:57:10.647Z,6.85
2022-11-20T01:02:10.716Z,5.94
2022-11-20T01:04:40.869Z,6.73
2022-11-20T01:07:10.816Z,5.31
2022-11-20T01:12:10.796Z,5.32
2022-11-20T01:14:40.822Z,4.64
2022-11-20T01:19:40.874Z,6.5
2022-11-20T01:22:10.919Z,6
2022-11-20T01:24:40.902Z,6.46
2022-11-20T01:29:40.979Z,6.07
2022-11-20T01:32:11.002Z,6.75
2022-11-20T01:34:41.017Z,6.33
2022-11-20T01:37:11.032Z,5.91
2022-11-20T01:39:41.051Z,7.38
2022-11-20T01:42:11.083Z,6.29
2022-11-20T01:44:41.118Z,5.9
2022-11-20T01:47:11.137Z,5.45
2022-11-20T01:49:41.161Z,5.76
2022-11-20T01:52:11.206Z,5.73
2022-11-20T01:54:41.227Z,6.15
2022-11-20T01:57:11.248Z,6.87
2022-11-20T01:59:41.259Z,6
2022-11-20T02:02:11.273Z,4.72
2022-11-20T02:04:41.310Z,4
2022-11-20T02:07:11.407Z,4.24
2022-11-20T02:12:11.378Z,4.81
2022-11-20T02:14:41.403Z,4.13
2022-11-20T02:17:11.423Z,5
2022-11-20T02:19:41.442Z,4.5
2022-11-20T02:22:11.480Z,6
2022-11-20T02:24:41.494Z,5.16
2022-11-20T02:27:11.527Z,6.02
2022-11-20T02:32:11.558Z,6.16
2022-11-20T02:34:41.621Z,6.09
2022-11-20T02:37:11.622Z,4.37
2022-11-20T02:39:41.649Z,5.78
2022-11-20T02:47:11.711Z,5.23
2022-11-20T02:49:41.749Z,4.86
2022-11-20T02:52:11.784Z,4.5
2022-11-20T02:57:11.810Z,4.56
2022-11-20T02:59:41.856Z,5.76
2022-11-20T03:04:41.911Z,3.4
2022-11-20T03:07:11.939Z,3.79
2022-11-20T03:09:41.932Z,3.47
2022-11-20T03:14:41.996Z,4.66
2022-11-20T03:17:12.004Z,4.57
2022-11-20T03:19:42.031Z,5.25
2022-11-20T03:22:12.041Z,7.85
2022-11-20T03:24:42.072Z,6.24
2022-11-20T03:27:12.101Z,5.05
2022-11-20T03:29:42.130Z,3.91
2022-11-20T03:32:12.147Z,3.54
2022-11-20T03:37:12.193Z,3.52
2022-11-20T03:39:42.219Z,4.28
2022-11-20T03:42:12.252Z,4.46
2022-11-20T03:44:42.275Z,5.16
2022-11-20T03:47:12.306Z,5.05
2022-11-20T03:49:42.328Z,3.81
2022-11-20T03:52:12.355Z,4.03
2022-11-20T03:54:42.366Z,3.61
2022-11-20T03:57:12.392Z,3.29
2022-11-20T03:59:42.428Z,3.23
2022-11-20T04:02:12.487Z,4.08
2022-11-20T04:04:42.466Z,4.17
2022-11-20T04:07:12.510Z,3.85
2022-11-20T04:09:42.537Z,3.1
2022-11-20T04:12:12.550Z,3.36
2022-11-20T04:14:42.565Z,4.31
2022-11-20T04:17:12.582Z,3.16
2022-11-20T04:19:42.613Z,4.18
2022-11-20T04:22:12.636Z,4.54
2022-11-20T04:24:42.679Z,3.74
2022-11-20T04:27:12.707Z,3.81
2022-11-20T04:29:42.725Z,3.03
2022-11-20T04:32:12.739Z,4.51
2022-11-20T04:34:42.754Z,5.58
2022-11-20T04:37:12.783Z,5.14
2022-11-20T04:39:42.805Z,4.05
2022-11-20T04:42:12.853Z,3.64
2022-11-20T04:44:42.854Z,3.77
2022-11-20T04:47:12.868Z,4.01
2022-11-20T04:49:43.140Z,3.43
2022-11-20T04:52:12.937Z,4.61
2022-11-20T04:54:42.964Z,3.45
2022-11-20T04:57:14.475Z,3.56
2022-11-20T04:59:42.993Z,3.98
2022-11-20T05:02:13.061Z,3.92
2022-11-20T05:04:43.055Z,3.54
2022-11-20T05:07:13.172Z,4.33
2022-11-20T05:12:13.127Z,3.82
2022-11-20T05:14:43.142Z,3.26
2022-11-20T05:17:13.226Z,3.89
2022-11-20T05:19:43.217Z,4.25
2022-11-20T05:22:13.226Z,4
2022-11-20T05:24:43.233Z,2.86
2022-11-20T05:27:13.266Z,3.29
2022-11-20T05:29:43.292Z,3.01
2022-11-20T05:32:13.321Z,2.88
2022-11-20T05:34:43.352Z,2.64
2022-11-20T05:37:13.375Z,2.46
2022-11-20T05:39:43.399Z,2.35
2022-11-20T05:42:13.415Z,2.77
2022-11-20T05:44:43.448Z,2.31
2022-11-20T05:47:13.478Z,1.89
2022-11-20T05:49:43.514Z,3.6
2022-11-20T05:52:13.553Z,3.19
2022-11-20T05:54:43.523Z,5
2022-11-20T05:57:13.574Z,5.24
2022-11-20T05:59:43.599Z,3.86
2022-11-20T06:02:13.689Z,3.18
2022-11-20T06:04:43.629Z,2.51
2022-11-20T06:07:13.679Z,2.59
2022-11-20T06:09:43.672Z,2.38
2022-11-20T06:12:13.746Z,3.03
2022-11-20T06:14:43.759Z,3.62
2022-11-20T06:17:13.760Z,3.89
2022-11-20T06:19:43.790Z,3.6
2022-11-20T06:22:13.803Z,4.84
2022-11-20T06:24:43.845Z,4.15
2022-11-20T06:27:13.863Z,3.39
2022-11-20T06:32:13.893Z,3.19
2022-11-20T06:34:43.917Z,3.66
2022-11-20T06:37:13.973Z,3.68
2022-11-20T06:39:44.021Z,3.66
2022-11-20T06:42:14.011Z,2.95
2022-11-20T06:44:44.028Z,2.8
2022-11-20T06:47:14.062Z,2.98
2022-11-20T06:49:44.092Z,3.13
2022-11-20T06:52:14.113Z,2.64
2022-11-20T06:54:44.157Z,2.67
2022-11-20T06:59:44.182Z,2.71
2022-11-20T07:02:14.223Z,2.98
2022-11-20T07:04:44.239Z,3.45
2022-11-20T07:07:14.447Z,3.47
2022-11-20T07:09:44.271Z,2.61
2022-11-20T07:12:14.281Z,3.38
2022-11-20T07:14:44.323Z,3.79
2022-11-20T07:17:14.341Z,4.72
2022-11-20T07:22:14.401Z,4.27
2022-11-20T07:24:46.173Z,4.37
2022-11-20T07:27:14.441Z,4.49
2022-11-20T07:29:44.475Z,4.19
2022-11-20T07:32:14.495Z,3.89
2022-11-20T07:34:44.527Z,4.28
2022-11-20T07:37:14.547Z,4.8
2022-11-20T07:39:44.559Z,4.82
2022-11-20T07:42:14.585Z,4.33
2022-11-20T07:44:44.624Z,4.21
2022-11-20T07:47:14.629Z,4.14
2022-11-20T07:49:44.656Z,4.01
2022-11-20T07:52:14.685Z,4.95
2022-11-20T07:57:14.749Z,5.2
2022-11-20T07:59:44.760Z,4.7
2022-11-20T08:02:14.777Z,5.74
2022-11-20T08:04:44.796Z,4.59
2022-11-20T08:07:14.869Z,5.2
2022-11-20T08:09:44.863Z,5.25
2022-11-20T08:12:14.888Z,4.09
2022-11-20T08:14:44.899Z,5.51
2022-11-20T08:17:14.913Z,5.25
2022-11-20T08:19:44.954Z,4.47
2022-11-20T08:22:14.983Z,5.19
2022-11-20T08:24:45.008Z,5.55
2022-11-20T08:27:15.019Z,5.27
2022-11-20T08:29:45.058Z,4.91
2022-11-20T08:32:15.092Z,4.26
2022-11-20T08:34:45.193Z,5.49
2022-11-20T08:37:15.123Z,4.36
2022-11-20T08:39:45.139Z,5.07
2022-11-20T08:42:15.168Z,5.73
2022-11-20T08:44:45.203Z,5.94
2022-11-20T08:47:15.225Z,5.92
2022-11-20T08:49:45.240Z,6.4
2022-11-20T08:52:15.247Z,6.36
2022-11-20T08:54:45.276Z,6.74
2022-11-20T09:02:15.361Z,4.87
2022-11-20T09:04:45.378Z,6.27
2022-11-20T09:07:15.462Z,6.66
2022-11-20T09:12:15.456Z,5.75
2022-11-20T09:14:45.495Z,4.9
2022-11-20T09:17:15.494Z,5.06
2022-11-20T09:19:46.088Z,6.42
2022-11-20T09:24:45.582Z,6.45
2022-11-20T09:27:15.599Z,7.02
2022-11-20T09:32:15.631Z,7.69
2022-11-20T09:37:15.695Z,6.07
2022-11-20T09:39:45.723Z,7.77
2022-11-20T09:42:15.749Z,7
2022-11-20T09:44:45.763Z,7.21
2022-11-20T09:47:15.808Z,8.13
2022-11-20T09:52:15.846Z,8.59
2022-11-20T09:54:45.874Z,7.67
2022-11-20T09:57:15.883Z,7.49
2022-11-20T09:59:45.906Z,9.67
2022-11-20T10:02:15.964Z,9.49
2022-11-20T10:04:45.973Z,8.65
2022-11-20T10:07:32.555Z,9.59
2022-11-20T10:09:46.038Z,8.06
2022-11-20T10:14:46.059Z,7.91
2022-11-20T10:17:16.076Z,8.35
2022-11-20T10:19:46.113Z,6.69
2022-11-20T10:24:46.137Z,9.13
2022-11-20T10:27:16.178Z,10.54
2022-11-20T10:29:46.213Z,10.14
2022-11-20T10:32:16.236Z,9.09
2022-11-20T10:34:46.262Z,8.46
2022-11-20T10:37:16.257Z,8.69
2022-11-20T10:39:46.287Z,8.26
2022-11-20T10:42:16.309Z,9.28
2022-11-20T10:44:46.340Z,8.03
2022-11-20T10:47:16.364Z,7.45
2022-11-20T10:49:46.384Z,7.87
2022-11-20T10:54:46.442Z,9.24
2022-11-20T10:59:46.488Z,8.25
2022-11-20T11:02:16.493Z,8.57
2022-11-20T11:04:46.528Z,8.81
2022-11-20T11:07:16.619Z,8.62
2022-11-20T11:12:16.607Z,9.22
2022-11-20T11:14:46.640Z,9.57
2022-11-20T11:17:16.671Z,9.11
2022-11-20T11:19:46.705Z,8.09
2022-11-20T11:22:16.705Z,8.62
2022-11-20T11:27:17.614Z,8.61
2022-11-20T11:29:46.773Z,9.17
2022-11-20T11:32:16.797Z,8.39
2022-11-20T11:37:16.838Z,7.85
2022-11-20T11:39:49.363Z,8.53
2022-11-20T11:42:16.884Z,8.67
2022-11-20T11:49:46.959Z,8.46
2022-11-20T11:52:16.965Z,8.05
2022-11-20T11:57:17.026Z,9.64
2022-11-20T12:04:47.099Z,9.9
2022-11-20T12:09:47.148Z,10.75
2022-11-20T12:12:17.185Z,9.98
2022-11-20T12:14:47.178Z,10.68
2022-11-20T12:19:47.242Z,12.23
2022-11-20T12:22:17.270Z,12.47
2022-11-20T12:29:47.335Z,8.69
2022-11-20T12:32:17.380Z,9.9
2022-11-20T12:34:47.381Z,8.37
2022-11-20T12:39:47.433Z,7.55
2022-11-20T12:44:47.497Z,7.61
2022-11-20T12:49:47.522Z,7.26
2022-11-20T12:52:17.558Z,6.85
2022-11-20T12:57:17.595Z,6.62
2022-11-20T12:59:47.633Z,6.5
2022-11-20T13:04:47.652Z,6.96
2022-11-20T13:07:17.838Z,6.91
2022-11-20T13:14:47.748Z,5.35
2022-11-20T13:24:47.859Z,7.82
2022-11-20T13:27:17.881Z,7.25
2022-11-20T13:32:18.079Z,8.33
2022-11-20T13:37:17.996Z,8.68
2022-11-20T13:39:48.012Z,7.77
2022-11-20T13:49:48.091Z,9.56
2022-11-20T13:52:18.135Z,10.31
2022-11-20T13:54:48.143Z,8.01
2022-11-20T13:59:48.368Z,9.23
2022-11-20T14:02:18.220Z,7.8
2022-11-20T14:09:48.288Z,8.05
2022-11-20T14:12:18.321Z,7.45
2022-11-20T14:19:48.385Z,8.47
2022-11-20T14:22:18.417Z,8.45
2022-11-20T14:32:18.492Z,10.06
2022-11-20T14:37:18.573Z,10.38
2022-11-20T14:39:48.568Z,11.02
2022-11-20T14:42:18.580Z,10.64
2022-11-20T14:44:48.631Z,11.56
2022-11-20T14:52:18.696Z,9.9
2022-11-20T14:54:48.715Z,9.5
2022-11-20T14:57:18.745Z,10.5
2022-11-20T15:02:18.780Z,9.99
2022-11-20T15:04:48.819Z,10.25
2022-11-20T15:07:18.884Z,10.46
2022-11-20T15:12:18.884Z,10
2022-11-20T15:14:48.911Z,9.81
2022-11-20T15:17:18.915Z,9.51
2022-11-20T15:22:18.971Z,22.5
2022-11-20T15:24:48.995Z,18.42
2022-11-20T15:29:49.050Z,11.69
2022-11-20T15:32:19.068Z,10.53
2022-11-20T15:34:49.103Z,10.45
2022-11-20T15:37:19.109Z,10.93
2022-11-20T15:42:19.154Z,11.61
2022-11-20T15:44:49.178Z,11.58
2022-11-20T15:47:19.224Z,11.61
2022-11-20T15:57:19.304Z,14.7
2022-11-20T15:59:49.319Z,15.22
2022-11-20T16:04:49.412Z,13.43
2022-11-20T16:07:19.484Z,11.38
2022-11-20T16:09:49.433Z,12.8
2022-11-20T16:12:19.444Z,10.18
2022-11-20T16:19:49.525Z,13.35
2022-11-20T16:22:19.536Z,13.68
2022-11-20T16:24:49.579Z,13.09
2022-11-20T16:27:19.578Z,13.53
2022-11-20T16:29:49.631Z,15.68
2022-11-20T16:32:19.632Z,12.11
2022-11-20T16:34:49.658Z,9.39
2022-11-20T16:37:19.688Z,12.31
2022-11-20T16:39:49.709Z,13.24
2022-11-20T16:42:19.734Z,16.14
2022-11-20T16:44:49.747Z,17.76
2022-11-20T16:47:19.761Z,13.99
2022-11-20T16:49:49.806Z,11.28
2022-11-20T16:52:19.847Z,12.33
2022-11-20T16:54:49.860Z,12.86
2022-11-20T16:57:19.879Z,15.13
2022-11-20T16:59:49.898Z,15.21
2022-11-20T17:02:19.932Z,16.2
2022-11-20T17:04:49.942Z,18.22
2022-11-20T17:07:20.030Z,16.92
2022-11-20T17:12:20.025Z,15.67
2022-11-20T17:14:50.033Z,14.15
2022-11-20T17:17:20.092Z,10.83
2022-11-20T17:19:50.127Z,11.53
2022-11-20T17:22:20.090Z,13
2022-11-20T17:24:50.165Z,13.72
2022-11-20T17:27:20.162Z,14.14
2022-11-20T17:29:50.207Z,10.71
2022-11-20T17:32:20.343Z,8.07
2022-11-20T17:34:50.224Z,8.37
2022-11-20T17:37:20.243Z,12.56
2022-11-20T17:39:50.281Z,10.42
2022-11-20T17:42:20.297Z,10.05
2022-11-20T17:44:50.333Z,9.83
2022-11-20T17:47:20.333Z,9.26
2022-11-20T17:49:50.371Z,7.9
2022-11-20T17:52:20.401Z,7.64
2022-11-20T17:54:50.430Z,7.71
2022-11-20T17:57:20.454Z,7.77
2022-11-20T17:59:50.537Z,6.24
2022-11-20T18:02:20.466Z,5.57
2022-11-20T18:04:50.502Z,6.53
2022-11-20T18:07:20.594Z,6.28
2022-11-20T18:09:50.576Z,7.89
2022-11-20T18:12:20.591Z,7.73
2022-11-20T18:14:50.598Z,6.97
2022-11-20T18:17:20.616Z,6.39
2022-11-20T18:20:14.255Z,6.2
2022-11-20T18:22:20.718Z,6.85
2022-11-20T18:24:50.720Z,7.58
2022-11-20T18:27:20.726Z,10.3
2022-11-20T18:29:50.749Z,9.1
2022-11-20T18:32:20.768Z,9.18
2022-11-20T18:34:50.833Z,9.21
2022-11-20T18:37:20.828Z,10.85
2022-11-20T18:39:50.889Z,9.52
2022-11-20T18:42:20.862Z,8.62
2022-11-20T18:44:50.894Z,7.71
2022-11-20T18:47:20.925Z,10.49
2022-11-20T18:49:51.480Z,10.38
2022-11-20T18:52:20.960Z,9.63
2022-11-20T18:54:50.999Z,8.6
2022-11-20T18:57:20.999Z,8.35
2022-11-20T18:59:51.048Z,9.81
2022-11-20T19:02:21.071Z,12.05
2022-11-20T19:04:51.099Z,9.27
2022-11-20T19:07:21.170Z,10.85
2022-11-20T19:09:51.134Z,9.26
2022-11-20T19:12:21.166Z,8.91
2022-11-20T19:14:51.191Z,8.1
2022-11-20T19:17:21.191Z,7.48
2022-11-20T19:19:51.220Z,8.42
2022-11-20T19:22:21.263Z,7.91
2022-11-20T19:24:51.268Z,7.19
2022-11-20T19:27:21.448Z,6.84
2022-11-20T19:29:51.332Z,8.25
2022-11-20T19:32:21.339Z,8.14
2022-11-20T19:34:51.376Z,7.83
2022-11-20T19:37:21.384Z,7.09
2022-11-20T19:39:51.414Z,7.77
2022-11-20T19:42:21.437Z,11.45
2022-11-20T19:44:51.465Z,11.21
2022-11-20T19:47:22.859Z,9.09
2022-11-20T19:49:51.525Z,11.34
2022-11-20T19:52:21.546Z,10.33
2022-11-20T19:54:51.545Z,9.5
2022-11-20T19:57:21.572Z,9.73
2022-11-20T19:59:51.987Z,11.58
2022-11-20T20:02:21.627Z,10.74
2022-11-20T20:04:51.655Z,12.91
2022-11-20T20:07:21.729Z,12.47
2022-11-20T20:09:51.711Z,11.07
2022-11-20T20:12:21.712Z,8.5
2022-11-20T20:14:51.758Z,7.96
2022-11-20T20:17:21.764Z,9.8
2022-11-20T20:19:51.788Z,10.24
2022-11-20T20:22:21.810Z,11.24
2022-11-20T20:24:51.856Z,10.28
2022-11-20T20:27:21.884Z,12.38
2022-11-20T20:29:51.890Z,10.86
2022-11-20T20:32:21.920Z,9.04
2022-11-20T20:34:51.948Z,8.01
2022-11-20T20:37:21.980Z,7.8
2022-11-20T20:39:51.985Z,8.11
2022-11-20T20:42:22.003Z,8.8
2022-11-20T20:44:52.040Z,7.62
2022-11-20T20:49:52.095Z,7.11
2022-11-20T20:52:22.112Z,7.68
2022-11-20T20:54:52.120Z,9.4
2022-11-20T20:57:22.130Z,7.6
2022-11-20T20:59:52.177Z,7.68
2022-11-20T21:02:22.190Z,7.8
2022-11-20T21:04:52.236Z,6.29
2022-11-20T21:07:22.304Z,6.83
2022-11-20T21:12:22.410Z,6.12
2022-11-20T21:14:52.318Z,7.56
2022-11-20T21:17:22.340Z,8.27
2022-11-20T21:22:22.396Z,8.77
2022-11-20T21:27:22.452Z,7.24
2022-11-20T21:29:52.487Z,8.89
2022-11-20T21:32:22.490Z,8.46
2022-11-20T21:34:52.504Z,8.24
2022-11-20T21:44:52.605Z,7.94
2022-11-20T21:47:22.610Z,6.99
2022-11-20T21:49:52.626Z,6.35
2022-11-20T21:54:52.707Z,8.04
2022-11-20T21:57:22.735Z,8.95
2022-11-20T21:59:52.755Z,8.9
2022-11-20T22:02:22.782Z,7.62
2022-11-20T22:04:52.823Z,6.75
2022-11-20T22:07:22.832Z,8.43
2022-11-20T22:09:52.853Z,7.95
2022-11-20T22:12:22.849Z,7.09
2022-11-20T22:14:52.893Z,6.95
2022-11-20T22:17:22.915Z,8.75
2022-11-20T22:19:52.951Z,8.61
2022-11-20T22:22:22.957Z,7.61
2022-11-20T22:24:52.982Z,6.57
2022-11-20T22:27:23.001Z,6.79
2022-11-20T22:29:53.049Z,7.04
2022-11-20T22:32:23.064Z,6.45
2022-11-20T22:34:53.097Z,7.59
2022-11-20T22:37:23.106Z,7.65
2022-11-20T22:42:23.131Z,8.73
2022-11-20T22:44:53.335Z,6.35
2022-11-20T22:47:23.210Z,7.61
2022-11-20T22:49:53.247Z,7.08
2022-11-20T22:54:53.255Z,7.26
2022-11-20T22:57:23.310Z,8.55
2022-11-20T22:59:53.317Z,7.25
2022-11-20T23:02:23.353Z,7.43
2022-11-20T23:04:53.363Z,7.98
2022-11-20T23:07:23.447Z,7.83
2022-11-20T23:09:53.435Z,8.58
2022-11-20T23:12:23.434Z,10.88
2022-11-20T23:14:53.469Z,10.67
2022-11-20T23:17:23.503Z,9.99
2022-11-20T23:19:53.500Z,8.55
2022-11-20T23:22:23.537Z,10.68
2022-11-20T23:24:53.571Z,11.24
2022-11-20T23:27:27.288Z,8.99
2022-11-20T23:32:23.624Z,7.55
2022-11-20T23:34:53.649Z,6.79
2022-11-20T23:37:23.669Z,8.47
2022-11-20T23:39:53.723Z,7.37
2022-11-20T23:44:53.738Z,7.81
2022-11-20T23:47:23.769Z,8.37
2022-11-20T23:49:53.788Z,9.85
2022-11-20T23:52:23.816Z,9.94
2022-11-20T23:54:53.837Z,10.94
2022-11-20T23:57:23.868Z,10.25
2022-11-20T23:59:53.884Z,10.15
